sensor_id;sensor_type;location;lat;lon;timestamp;pressure;altitude;pressure_sealevel;temperature;humidity
22389;BME280;11362;48.102;11.620;2022-11-15T00:00:44;95158.00;;;23.46;37.94
22389;BME280;11362;48.102;11.620;2022-11-15T00:03:09;95154.00;;;23.47;38.06
22389;BME280;11362;48.102;11.620;2022-11-15T00:05:35;95150.47;;;23.47;38.01
22389;BME280;11362;48.102;11.620;2022-11-15T00:08:00;95152.84;;;23.48;38.00
22389;BME280;11362;48.102;11.620;2022-11-15T00:10:26;95147.69;;;23.47;38.12
22389;BME280;11362;48.102;11.620;2022-11-15T00:12:51;95145.28;;;23.49;38.43
22389;BME280;11362;48.102;11.620;2022-11-15T00:15:16;95144.50;;;23.48;38.32
22389;BME280;11362;48.102;11.620;2022-11-15T00:17:41;95146.09;;;23.49;38.04
22389;BME280;11362;48.102;11.620;2022-11-15T00:20:07;95138.97;;;23.48;37.97
22389;BME280;11362;48.102;11.620;2022-11-15T00:22:33;95143.31;;;23.49;38.00
22389;BME280;11362;48.102;11.620;2022-11-15T00:24:58;95141.31;;;23.50;37.93
22389;BME280;11362;48.102;11.620;2022-11-15T00:27:23;95136.97;;;23.49;37.85
22389;BME280;11362;48.102;11.620;2022-11-15T00:29:48;95131.84;;;23.47;37.79
22389;BME280;11362;48.102;11.620;2022-11-15T00:32:14;95131.84;;;23.47;37.91
22389;BME280;11362;48.102;11.620;2022-11-15T00:34:39;95140.59;;;23.46;37.78
22389;BME280;11362;48.102;11.620;2022-11-15T00:37:05;95134.59;;;23.47;38.01
22389;BME280;11362;48.102;11.620;2022-11-15T00:39:31;95136.59;;;23.47;37.84
22389;BME280;11362;48.102;11.620;2022-11-15T00:41:56;95130.28;;;23.46;37.69
22389;BME280;11362;48.102;11.620;2022-11-15T00:44:21;95137.03;;;23.45;37.85
22389;BME280;11362;48.102;11.620;2022-11-15T00:46:46;95131.06;;;23.47;37.66
22389;BME280;11362;48.102;11.620;2022-11-15T00:49:12;95130.28;;;23.46;37.69
22389;BME280;11362;48.102;11.620;2022-11-15T00:51:37;95129.06;;;23.47;37.62
22389;BME280;11362;48.102;11.620;2022-11-15T00:54:02;95120.75;;;23.47;37.67
22389;BME280;11362;48.102;11.620;2022-11-15T00:56:28;95118.75;;;23.48;37.83
22389;BME280;11362;48.102;11.620;2022-11-15T00:58:53;95116.06;;;23.44;37.63
22389;BME280;11362;48.102;11.620;2022-11-15T01:01:19;95119.97;;;23.47;37.53
22389;BME280;11362;48.102;11.620;2022-11-15T01:03:44;95119.19;;;23.46;37.74
22389;BME280;11362;48.102;11.620;2022-11-15T01:06:10;95110.88;;;23.46;37.67
22389;BME280;11362;48.102;11.620;2022-11-15T01:08:35;95109.31;;;23.45;37.62
22389;BME280;11362;48.102;11.620;2022-11-15T01:11:07;95103.75;;;23.45;37.60
22389;BME280;11362;48.102;11.620;2022-11-15T01:13:33;95100.97;;;23.45;37.53
22389;BME280;11362;48.102;11.620;2022-11-15T01:16:14;95095.44;;;23.45;37.63
22389;BME280;11362;48.102;11.620;2022-11-15T01:18:40;95101.41;;;23.44;37.36
22389;BME280;11362;48.102;11.620;2022-11-15T01:21:07;95097.78;;;23.47;37.55
22389;BME280;11362;48.102;11.620;2022-11-15T01:23:33;95083.53;;;23.48;37.56
22389;BME280;11362;48.102;11.620;2022-11-15T01:25:59;95086.72;;;23.47;37.54
22389;BME280;11362;48.102;11.620;2022-11-15T01:28:25;95083.94;;;23.47;37.70
22389;BME280;11362;48.102;11.620;2022-11-15T01:30:50;95083.16;;;23.46;37.68
22389;BME280;11362;48.102;11.620;2022-11-15T01:33:15;95075.63;;;23.47;37.55
22389;BME280;11362;48.102;11.620;2022-11-15T01:35:41;95072.50;;;23.45;37.47
22389;BME280;11362;48.102;11.620;2022-11-15T01:38:07;95076.38;;;23.47;37.49
22389;BME280;11362;48.102;11.620;2022-11-15T01:40:32;95068.50;;;23.46;37.43
22389;BME280;11362;48.102;11.620;2022-11-15T01:42:57;95066.16;;;23.44;37.45
22389;BME280;11362;48.102;11.620;2022-11-15T01:45:22;95058.19;;;23.46;37.42
22389;BME280;11362;48.102;11.620;2022-11-15T01:47:52;95057.44;;;23.46;37.53
22389;BME280;11362;48.102;11.620;2022-11-15T01:50:22;95050.31;;;23.45;37.38
22389;BME280;11362;48.102;11.620;2022-11-15T01:52:49;95057.78;;;23.48;37.36
22389;BME280;11362;48.102;11.620;2022-11-15T01:55:22;95045.91;;;23.47;37.35
22389;BME280;11362;48.102;11.620;2022-11-15T01:57:54;95038.78;;;23.46;37.41
22389;BME280;11362;48.102;11.620;2022-11-15T02:00:20;95040.78;;;23.46;37.32
22389;BME280;11362;48.102;11.620;2022-11-15T02:02:45;95037.22;;;23.45;37.46
22389;BME280;11362;48.102;11.620;2022-11-15T02:05:11;95038.44;;;23.44;37.34
22389;BME280;11362;48.102;11.620;2022-11-15T02:07:36;95038.44;;;23.44;37.44
22389;BME280;11362;48.102;11.620;2022-11-15T02:10:06;95037.22;;;23.45;37.26
22389;BME280;11362;48.102;11.620;2022-11-15T02:12:32;95032.88;;;23.44;37.58
22389;BME280;11362;48.102;11.620;2022-11-15T02:14:58;95031.69;;;23.45;37.23
22389;BME280;11362;48.102;11.620;2022-11-15T02:17:31;95027.34;;;23.44;37.29
22389;BME280;11362;48.102;11.620;2022-11-15T02:25:49;95024.16;;;23.46;37.19
22389;BME280;11362;48.102;11.620;2022-11-15T02:31:48;95016.25;;;23.44;37.24
22389;BME280;11362;48.102;11.620;2022-11-15T02:34:23;95008.75;;;23.45;37.40
22389;BME280;11362;48.102;11.620;2022-11-15T02:39:45;95005.16;;;23.44;36.99
22389;BME280;11362;48.102;11.620;2022-11-15T02:42:15;95011.50;;;23.45;37.15
22389;BME280;11362;48.102;11.620;2022-11-15T02:44:45;95006.38;;;23.43;37.02
22389;BME280;11362;48.102;11.620;2022-11-15T02:47:13;95004.38;;;23.44;37.01
22389;BME280;11362;48.102;11.620;2022-11-15T02:49:48;95004.38;;;23.44;37.23
22389;BME280;11362;48.102;11.620;2022-11-15T02:52:15;95002.41;;;23.44;37.07
22389;BME280;11362;48.102;11.620;2022-11-15T02:54:41;94998.06;;;23.43;36.98
22389;BME280;11362;48.102;11.620;2022-11-15T02:57:16;95005.97;;;23.45;37.06
22389;BME280;11362;48.102;11.620;2022-11-15T03:00:06;95011.06;;;23.46;37.02
22389;BME280;11362;48.102;11.620;2022-11-15T03:02:42;95006.72;;;23.45;36.95
22389;BME280;11362;48.102;11.620;2022-11-15T03:05:28;95001.19;;;23.45;37.00
22389;BME280;11362;48.102;11.620;2022-11-15T03:08:13;95001.19;;;23.45;37.04
22389;BME280;11362;48.102;11.620;2022-11-15T03:11:08;95007.53;;;23.46;36.86
22389;BME280;11362;48.102;11.620;2022-11-15T03:13:59;94998.41;;;23.45;36.99
22389;BME280;11362;48.102;11.620;2022-11-15T03:16:50;94988.53;;;23.44;36.99
22389;BME280;11362;48.102;11.620;2022-11-15T03:21:59;94990.09;;;23.45;36.85
22389;BME280;11362;48.102;11.620;2022-11-15T03:24:26;94991.31;;;23.44;36.64
22389;BME280;11362;48.102;11.620;2022-11-15T03:26:54;94994.09;;;23.44;36.86
22389;BME280;11362;48.102;11.620;2022-11-15T03:29:28;94980.22;;;23.44;36.84
22389;BME280;11362;48.102;11.620;2022-11-15T03:31:59;94985.34;;;23.46;36.78
22389;BME280;11362;48.102;11.620;2022-11-15T03:37:07;94978.25;;;23.45;36.83
22389;BME280;11362;48.102;11.620;2022-11-15T03:39:33;94971.50;;;23.46;36.87
22389;BME280;11362;48.102;11.620;2022-11-15T03:42:20;94979.38;;;23.47;36.56
22389;BME280;11362;48.102;11.620;2022-11-15T03:45:01;94974.25;;;23.46;36.74
22389;BME280;11362;48.102;11.620;2022-11-15T03:47:32;94962.38;;;23.45;36.81
22389;BME280;11362;48.102;11.620;2022-11-15T03:50:07;94969.50;;;23.46;36.75
22389;BME280;11362;48.102;11.620;2022-11-15T03:52:34;94965.16;;;23.45;36.75
22389;BME280;11362;48.102;11.620;2022-11-15T03:55:01;94970.69;;;23.45;36.78
22389;BME280;11362;48.102;11.620;2022-11-15T03:57:28;94966.72;;;23.46;36.84
22389;BME280;11362;48.102;11.620;2022-11-15T03:59:53;94962.38;;;23.45;36.81
22389;BME280;11362;48.102;11.620;2022-11-15T04:02:18;94963.19;;;23.46;36.63
22389;BME280;11362;48.102;11.620;2022-11-15T04:04:44;94962.38;;;23.45;36.72
22389;BME280;11362;48.102;11.620;2022-11-15T04:07:09;94958.41;;;23.46;36.79
22389;BME280;11362;48.102;11.620;2022-11-15T04:09:34;94958.41;;;23.46;36.58
22389;BME280;11362;48.102;11.620;2022-11-15T04:12:00;94947.31;;;23.46;36.67
22389;BME280;11362;48.102;11.620;2022-11-15T04:14:25;94944.53;;;23.46;36.60
22389;BME280;11362;48.102;11.620;2022-11-15T04:16:50;94946.09;;;23.47;36.63
22389;BME280;11362;48.102;11.620;2022-11-15T04:19:16;94934.66;;;23.45;36.69
22389;BME280;11362;48.102;11.620;2022-11-15T04:21:42;94937.00;;;23.47;36.60
22389;BME280;11362;48.102;11.620;2022-11-15T04:24:07;94942.56;;;23.47;36.58
22389;BME280;11362;48.102;11.620;2022-11-15T04:26:32;94930.69;;;23.46;36.71
22389;BME280;11362;48.102;11.620;2022-11-15T04:28:58;94929.13;;;23.45;36.66
22389;BME280;11362;48.102;11.620;2022-11-15T04:31:23;94930.69;;;23.46;36.72
22389;BME280;11362;48.102;11.620;2022-11-15T04:33:49;94922.00;;;23.44;36.71
22389;BME280;11362;48.102;11.620;2022-11-15T04:36:14;94920.03;;;23.45;36.68
22389;BME280;11362;48.102;11.620;2022-11-15T04:38:39;94914.91;;;23.43;36.73
22389;BME280;11362;48.102;11.620;2022-11-15T04:41:04;94922.00;;;23.44;36.68
22389;BME280;11362;48.102;11.620;2022-11-15T04:43:30;94917.25;;;23.45;36.48
22389;BME280;11362;48.102;11.620;2022-11-15T04:45:55;94922.00;;;23.44;37.03
22389;BME280;11362;48.102;11.620;2022-11-15T04:48:20;94926.69;;;23.47;37.66
22389;BME280;11362;48.102;11.620;2022-11-15T04:50:49;94925.06;;;23.50;38.45
22389;BME280;11362;48.102;11.620;2022-11-15T04:53:14;94931.00;;;23.52;38.59
22389;BME280;11362;48.102;11.620;2022-11-15T04:55:39;94926.22;;;23.52;38.42
22389;BME280;11362;48.102;11.620;2022-11-15T04:58:05;94896.50;;;23.53;38.43
22389;BME280;11362;48.102;11.620;2022-11-15T05:00:30;94901.25;;;23.52;38.95
22389;BME280;11362;48.102;11.620;2022-11-15T05:02:56;94901.25;;;23.52;38.12
22389;BME280;11362;48.102;11.620;2022-11-15T05:05:23;94902.06;;;23.53;38.85
22389;BME280;11362;48.102;11.620;2022-11-15T05:07:49;94917.91;;;23.52;39.16
22389;BME280;11362;48.102;11.620;2022-11-15T05:10:14;94922.69;;;23.52;39.01
22389;BME280;11362;48.102;11.620;2022-11-15T05:12:39;94917.13;;;23.52;38.94
22389;BME280;11362;48.102;11.620;2022-11-15T05:15:05;94910.78;;;23.51;38.81
22389;BME280;11362;48.102;11.620;2022-11-15T05:17:31;94917.91;;;23.52;39.21
22389;BME280;11362;48.102;11.620;2022-11-15T05:19:56;94915.13;;;23.52;39.22
22389;BME280;11362;48.102;11.620;2022-11-15T05:22:21;94911.13;;;23.53;39.14
22389;BME280;11362;48.102;11.620;2022-11-15T05:24:47;94900.50;;;23.52;39.44
22389;BME280;11362;48.102;11.620;2022-11-15T05:27:12;94902.06;;;23.53;39.24
22389;BME280;11362;48.102;11.620;2022-11-15T05:29:38;94895.31;;;23.54;39.37
22389;BME280;11362;48.102;11.620;2022-11-15T05:32:05;94890.16;;;23.52;39.39
22389;BME280;11362;48.102;11.620;2022-11-15T05:34:31;94867.22;;;23.52;39.05
22389;BME280;11362;48.102;11.620;2022-11-15T05:36:57;94868.78;;;23.53;39.11
22389;BME280;11362;48.102;11.620;2022-11-15T05:39:22;94868.00;;;23.52;38.49
22389;BME280;11362;48.102;11.620;2022-11-15T05:41:54;94856.91;;;23.52;38.05
22389;BME280;11362;48.102;11.620;2022-11-15T05:44:22;94856.13;;;23.52;37.96
22389;BME280;11362;48.102;11.620;2022-11-15T05:46:49;94856.91;;;23.52;37.87
22389;BME280;11362;48.102;11.620;2022-11-15T05:49:18;94851.78;;;23.51;37.75
22389;BME280;11362;48.102;11.620;2022-11-15T05:51:46;94853.78;;;23.50;37.47
22389;BME280;11362;48.102;11.620;2022-11-15T05:54:14;94852.22;;;23.49;37.37
22389;BME280;11362;48.102;11.620;2022-11-15T05:56:39;94856.56;;;23.50;37.34
22389;BME280;11362;48.102;11.620;2022-11-15T05:59:05;94864.88;;;23.50;37.39
22389;BME280;11362;48.102;11.620;2022-11-15T06:01:32;94863.31;;;23.49;37.27
22389;BME280;11362;48.102;11.620;2022-11-15T06:03:58;94860.53;;;23.49;37.35
22389;BME280;11362;48.102;11.620;2022-11-15T06:06:23;94858.13;;;23.51;37.60
22389;BME280;11362;48.102;11.620;2022-11-15T06:08:48;94883.06;;;23.51;38.20
22389;BME280;11362;48.102;11.620;2022-11-15T06:11:13;94871.97;;;23.51;38.43
22389;BME280;11362;48.102;11.620;2022-11-15T06:13:39;94859.69;;;23.52;38.50
22389;BME280;11362;48.102;11.620;2022-11-15T06:16:04;94861.25;;;23.53;38.48
22389;BME280;11362;48.102;11.620;2022-11-15T06:18:32;94859.25;;;23.54;38.79
22389;BME280;11362;48.102;11.620;2022-11-15T06:20:59;94861.59;;;23.55;38.65
22389;BME280;11362;48.102;11.620;2022-11-15T06:23:24;94862.38;;;23.56;38.50
22389;BME280;11362;48.102;11.620;2022-11-15T06:25:49;94863.19;;;23.56;38.63
22389;BME280;11362;48.102;11.620;2022-11-15T06:28:15;94868.72;;;23.56;38.61
22389;BME280;11362;48.102;11.620;2022-11-15T06:30:40;94866.28;;;23.58;38.82
22389;BME280;11362;48.102;11.620;2022-11-15T06:33:05;94848.09;;;23.57;38.87
22389;BME280;11362;48.102;11.620;2022-11-15T06:35:33;94888.47;;;23.58;39.65
22389;BME280;11362;48.102;11.620;2022-11-15T06:38:07;94895.22;;;23.57;39.68
22389;BME280;11362;48.102;11.620;2022-11-15T06:40:37;94901.19;;;23.56;39.64
22389;BME280;11362;48.102;11.620;2022-11-15T06:43:03;94856.03;;;23.55;39.52
22389;BME280;11362;48.102;11.620;2022-11-15T06:45:29;94850.88;;;23.57;39.27
22389;BME280;11362;48.102;11.620;2022-11-15T06:47:54;94856.03;;;23.55;39.08
22389;BME280;11362;48.102;11.620;2022-11-15T06:50:20;94849.72;;;23.55;38.99
22389;BME280;11362;48.102;11.620;2022-11-15T06:52:45;94844.19;;;23.55;38.83
22389;BME280;11362;48.102;11.620;2022-11-15T06:55:11;94864.34;;;23.55;39.07
22389;BME280;11362;48.102;11.620;2022-11-15T06:57:36;94868.72;;;23.56;38.71
22389;BME280;11362;48.102;11.620;2022-11-15T07:00:05;94857.63;;;23.56;39.29
22389;BME280;11362;48.102;11.620;2022-11-15T07:02:30;94852.84;;;23.57;39.15
22389;BME280;11362;48.102;11.620;2022-11-15T07:04:56;94853.25;;;23.55;39.18
22389;BME280;11362;48.102;11.620;2022-11-15T07:07:21;94854.84;;;23.56;39.03
22389;BME280;11362;48.102;11.620;2022-11-15T07:09:46;94851.72;;;23.54;38.41
22389;BME280;11362;48.102;11.620;2022-11-15T07:12:12;94875.91;;;23.54;38.13
22389;BME280;11362;48.102;11.620;2022-11-15T07:14:37;94878.66;;;23.54;38.08
22389;BME280;11362;48.102;11.620;2022-11-15T07:17:04;94881.00;;;23.55;38.38
22389;BME280;11362;48.102;11.620;2022-11-15T07:19:29;94879.88;;;23.53;38.16
22389;BME280;11362;48.102;11.620;2022-11-15T07:21:54;94877.88;;;23.53;37.99
22389;BME280;11362;48.102;11.620;2022-11-15T07:24:20;94875.91;;;23.54;37.95
22389;BME280;11362;48.102;11.620;2022-11-15T07:26:45;94873.47;;;23.56;37.76
22389;BME280;11362;48.102;11.620;2022-11-15T07:29:10;94869.06;;;23.58;37.75
22389;BME280;11362;48.102;11.620;2022-11-15T07:31:36;94874.97;;;23.60;37.53
22389;BME280;11362;48.102;11.620;2022-11-15T07:34:01;94886.78;;;23.64;37.60
22389;BME280;11362;48.102;11.620;2022-11-15T07:36:26;94886.72;;;23.68;37.87
22389;BME280;11362;48.102;11.620;2022-11-15T07:38:51;94885.06;;;23.70;37.41
22389;BME280;11362;48.102;11.620;2022-11-15T07:41:17;94882.66;;;23.72;37.30
22389;BME280;11362;48.102;11.620;2022-11-15T07:43:42;94880.63;;;23.73;37.42
22389;BME280;11362;48.102;11.620;2022-11-15T07:46:08;94883.34;;;23.76;37.16
22389;BME280;11362;48.102;11.620;2022-11-15T07:48:34;94873.84;;;23.77;37.17
22389;BME280;11362;48.102;11.620;2022-11-15T07:51:00;94880.50;;;23.80;36.77
22389;BME280;11362;48.102;11.620;2022-11-15T07:53:25;94875.41;;;23.78;36.90
22389;BME280;11362;48.102;11.620;2022-11-15T07:55:51;94871.00;;;23.81;37.19
22389;BME280;11362;48.102;11.620;2022-11-15T07:58:16;94843.59;;;23.83;37.48
22389;BME280;11362;48.102;11.620;2022-11-15T08:00:41;94840.03;;;23.82;36.83
22389;BME280;11362;48.102;11.620;2022-11-15T08:03:13;94841.16;;;23.85;36.60
22389;BME280;11362;48.102;11.620;2022-11-15T08:05:40;94841.16;;;23.85;36.68
22389;BME280;11362;48.102;11.620;2022-11-15T08:08:06;94843.91;;;23.88;36.58
22389;BME280;11362;48.102;11.620;2022-11-15T08:10:32;94830.03;;;23.88;36.53
22389;BME280;11362;48.102;11.620;2022-11-15T08:12:58;94888.63;;;23.90;36.82
22389;BME280;11362;48.102;11.620;2022-11-15T08:15:24;94828.81;;;23.89;36.45
22389;BME280;11362;48.102;11.620;2022-11-15T08:18:00;94848.56;;;23.91;36.36
22389;BME280;11362;48.102;11.620;2022-11-15T08:20:28;94835.50;;;23.92;36.74
22389;BME280;11362;48.102;11.620;2022-11-15T08:22:54;94843.31;;;23.97;36.50
22389;BME280;11362;48.102;11.620;2022-11-15T08:25:19;94834.22;;;23.96;36.38
22389;BME280;11362;48.102;11.620;2022-11-15T08:27:44;94827.44;;;23.97;36.51
22389;BME280;11362;48.102;11.620;2022-11-15T08:30:10;94815.50;;;24.00;36.70
22389;BME280;11362;48.102;11.620;2022-11-15T08:32:36;94813.06;;;24.02;36.38
22389;BME280;11362;48.102;11.620;2022-11-15T08:35:01;94796.44;;;24.02;36.44
22389;BME280;11362;48.102;11.620;2022-11-15T08:37:27;94802.78;;;24.03;36.64
22389;BME280;11362;48.102;11.620;2022-11-15T08:39:52;94791.66;;;24.03;36.95
22389;BME280;11362;48.102;11.620;2022-11-15T08:42:17;94793.16;;;24.07;37.04
22389;BME280;11362;48.102;11.620;2022-11-15T08:44:42;94793.91;;;24.08;37.13
22389;BME280;11362;48.102;11.620;2022-11-15T08:47:10;94797.81;;;24.10;36.94
22389;BME280;11362;48.102;11.620;2022-11-15T08:49:36;94791.06;;;24.11;36.70
22389;BME280;11362;48.102;11.620;2022-11-15T08:52:01;94793.41;;;24.13;37.18
22389;BME280;11362;48.102;11.620;2022-11-15T08:54:27;94805.31;;;24.13;37.07
22389;BME280;11362;48.102;11.620;2022-11-15T08:56:52;94797.75;;;24.14;37.21
22389;BME280;11362;48.102;11.620;2022-11-15T08:59:17;94792.97;;;24.14;37.27
22389;BME280;11362;48.102;11.620;2022-11-15T09:01:42;94798.09;;;24.16;37.22
22389;BME280;11362;48.102;11.620;2022-11-15T09:04:08;94801.66;;;24.16;37.18
22389;BME280;11362;48.102;11.620;2022-11-15T09:06:33;94801.22;;;24.18;37.25
22389;BME280;11362;48.102;11.620;2022-11-15T09:09:00;94804.75;;;24.18;36.89
22389;BME280;11362;48.102;11.620;2022-11-15T09:11:26;94800.00;;;24.19;37.36
22389;BME280;11362;48.102;11.620;2022-11-15T09:13:51;94802.38;;;24.20;37.31
22389;BME280;11362;48.102;11.620;2022-11-15T09:16:16;94794.81;;;24.21;37.40
22389;BME280;11362;48.102;11.620;2022-11-15T09:18:41;94798.38;;;24.21;37.33
22389;BME280;11362;48.102;11.620;2022-11-15T09:21:08;94797.91;;;24.23;37.58
22389;BME280;11362;48.102;11.620;2022-11-15T09:23:33;94795.94;;;24.23;37.39
22389;BME280;11362;48.102;11.620;2022-11-15T09:26:02;94790.38;;;24.23;37.33
22389;BME280;11362;48.102;11.620;2022-11-15T09:28:28;94780.84;;;24.24;37.34
22389;BME280;11362;48.102;11.620;2022-11-15T09:30:58;94774.06;;;24.25;37.03
22389;BME280;11362;48.102;11.620;2022-11-15T09:33:24;94771.28;;;24.25;37.33
22389;BME280;11362;48.102;11.620;2022-11-15T09:35:49;94770.06;;;24.26;36.70
22389;BME280;11362;48.102;11.620;2022-11-15T09:38:14;94764.91;;;24.28;36.94
22389;BME280;11362;48.102;11.620;2022-11-15T09:40:40;94776.00;;;24.28;36.84
22389;BME280;11362;48.102;11.620;2022-11-15T09:43:27;94770.78;;;24.30;36.89
22389;BME280;11362;48.102;11.620;2022-11-15T09:46:13;94764.81;;;24.32;37.23
22389;BME280;11362;48.102;11.620;2022-11-15T09:48:46;94756.03;;;24.33;36.90
22389;BME280;11362;48.102;11.620;2022-11-15T09:51:37;94745.72;;;24.34;37.25
22389;BME280;11362;48.102;11.620;2022-11-15T09:54:25;94749.63;;;24.36;37.32
22389;BME280;11362;48.102;11.620;2022-11-15T09:56:52;94738.53;;;24.36;36.95
22389;BME280;11362;48.102;11.620;2022-11-15T10:02:40;94733.66;;;24.40;36.89
22389;BME280;11362;48.102;11.620;2022-11-15T10:05:10;94726.53;;;24.39;37.02
22389;BME280;11362;48.102;11.620;2022-11-15T10:07:44;94721.78;;;24.40;36.57
22389;BME280;11362;48.102;11.620;2022-11-15T10:10:32;94721.31;;;24.41;37.01
22389;BME280;11362;48.102;11.620;2022-11-15T10:13:02;94686.34;;;24.44;36.79
22389;BME280;11362;48.102;11.620;2022-11-15T10:15:28;94689.13;;;24.44;36.81
22389;BME280;11362;48.102;11.620;2022-11-15T10:20:39;94730.69;;;24.47;36.40
22389;BME280;11362;48.102;11.620;2022-11-15T10:23:11;94734.69;;;24.46;36.50
22389;BME280;11362;48.102;11.620;2022-11-15T10:25:38;94667.63;;;24.48;37.20
22389;BME280;11362;48.102;11.620;2022-11-15T10:28:16;94657.28;;;24.48;37.13
22389;BME280;11362;48.102;11.620;2022-11-15T10:30:45;94657.66;;;24.50;37.05
22389;BME280;11362;48.102;11.620;2022-11-15T10:43:45;94668.13;;;24.59;37.72
22389;BME280;11362;48.102;11.620;2022-11-15T10:46:22;94664.94;;;24.60;37.92
22389;BME280;11362;48.102;11.620;2022-11-15T10:48:48;94659.28;;;24.64;38.37
22389;BME280;11362;48.102;11.620;2022-11-15T10:51:53;94658.38;;;24.67;38.17
22389;BME280;11362;48.102;11.620;2022-11-15T10:54:25;94653.19;;;24.69;38.45
22389;BME280;11362;48.102;11.620;2022-11-15T10:56:55;94652.75;;;24.70;38.57
22389;BME280;11362;48.102;11.620;2022-11-15T10:59:30;94645.19;;;24.71;38.27
22389;BME280;11362;48.102;11.620;2022-11-15T11:01:57;94646.41;;;24.70;38.21
22389;BME280;11362;48.102;11.620;2022-11-15T11:04:22;94648.75;;;24.71;37.85
22389;BME280;11362;48.102;11.620;2022-11-15T11:06:57;94607.09;;;24.71;37.97
22389;BME280;11362;48.102;11.620;2022-11-15T11:11:56;94599.97;;;24.70;37.96
22389;BME280;11362;48.102;11.620;2022-11-15T11:14:33;94622.19;;;24.70;38.21
22389;BME280;11362;48.102;11.620;2022-11-15T11:17:17;94625.66;;;24.74;38.11
22389;BME280;11362;48.102;11.620;2022-11-15T11:26:03;94605.78;;;24.76;37.98
22389;BME280;11362;48.102;11.620;2022-11-15T11:28:49;94612.09;;;24.76;37.96
22389;BME280;11362;48.102;11.620;2022-11-15T11:31:31;94604.13;;;24.78;37.97
22389;BME280;11362;48.102;11.620;2022-11-15T11:39:21;94600.44;;;24.81;38.07
22389;BME280;11362;48.102;11.620;2022-11-15T11:42:02;94564.00;;;24.79;37.61
22389;BME280;11362;48.102;11.620;2022-11-15T11:44:48;94560.00;;;24.80;37.62
22389;BME280;11362;48.102;11.620;2022-11-15T11:47:23;94559.59;;;24.82;37.26
22389;BME280;11362;48.102;11.620;2022-11-15T11:49:50;94578.56;;;24.83;37.33
22389;BME280;11362;48.102;11.620;2022-11-15T11:52:30;94577.34;;;24.84;37.33
22389;BME280;11362;48.102;11.620;2022-11-15T11:55:17;94568.25;;;24.84;37.46
22389;BME280;11362;48.102;11.620;2022-11-15T11:58:01;94562.25;;;24.85;37.56
22389;BME280;11362;48.102;11.620;2022-11-15T12:00:27;94569.78;;;24.85;37.10
22389;BME280;11362;48.102;11.620;2022-11-15T12:05:44;94562.25;;;24.85;37.20
22389;BME280;11362;48.102;11.620;2022-11-15T12:08:40;94557.78;;;24.88;37.00
22389;BME280;11362;48.102;11.620;2022-11-15T12:11:17;94565.34;;;24.87;37.21
22389;BME280;11362;48.102;11.620;2022-11-15T12:13:48;94557.03;;;24.87;37.12
22389;BME280;11362;48.102;11.620;2022-11-15T12:16:17;94553.03;;;24.88;37.05
22389;BME280;11362;48.102;11.620;2022-11-15T12:18:49;94545.91;;;24.87;37.10
22389;BME280;11362;48.102;11.620;2022-11-15T12:21:25;94539.13;;;24.88;37.22
22389;BME280;11362;48.102;11.620;2022-11-15T12:23:58;94537.91;;;24.89;37.14
22389;BME280;11362;48.102;11.620;2022-11-15T12:26:32;94533.91;;;24.90;37.21
22389;BME280;11362;48.102;11.620;2022-11-15T12:29:03;94533.13;;;24.90;37.52
22389;BME280;11362;48.102;11.620;2022-11-15T12:34:02;94545.00;;;24.90;37.15
22389;BME280;11362;48.102;11.620;2022-11-15T12:36:40;94542.69;;;24.89;37.51
22389;BME280;11362;48.102;11.620;2022-11-15T12:39:08;94532.34;;;24.89;37.35
22389;BME280;11362;48.102;11.620;2022-11-15T12:41:39;94527.59;;;24.90;37.41
22389;BME280;11362;48.102;11.620;2022-11-15T12:44:05;94529.13;;;24.91;37.19
22389;BME280;11362;48.102;11.620;2022-11-15T12:49:16;94524.22;;;24.95;37.36
22389;BME280;11362;48.102;11.620;2022-11-15T13:02:24;94517.03;;;24.97;37.52
22389;BME280;11362;48.102;11.620;2022-11-15T13:04:52;94511.03;;;24.99;37.40
22389;BME280;11362;48.102;11.620;2022-11-15T13:17:42;94505.03;;;25.00;37.34
22389;BME280;11362;48.102;11.620;2022-11-15T13:25:15;94497.03;;;25.02;37.47
22389;BME280;11362;48.102;11.620;2022-11-15T13:27:41;94496.69;;;25.00;37.43
22389;BME280;11362;48.102;11.620;2022-11-15T13:30:15;94499.47;;;25.00;37.49
22389;BME280;11362;48.102;11.620;2022-11-15T13:32:43;94492.00;;;24.97;37.70
22389;BME280;11362;48.102;11.620;2022-11-15T13:35:09;94494.03;;;24.97;37.61
22389;BME280;11362;48.102;11.620;2022-11-15T13:37:34;94496.03;;;24.96;37.54
22389;BME280;11362;48.102;11.620;2022-11-15T13:40:25;94517.03;;;24.97;36.55
22389;BME280;11362;48.102;11.620;2022-11-15T13:42:51;94515.25;;;24.78;35.68
22389;BME280;11362;48.102;11.620;2022-11-15T13:45:18;94516.69;;;24.42;31.57
22389;BME280;11362;48.102;11.620;2022-11-15T13:47:44;94518.94;;;24.18;30.88
22389;BME280;11362;48.102;11.620;2022-11-15T13:50:13;94514.88;;;23.94;30.57
22389;BME280;11362;48.102;11.620;2022-11-15T13:52:40;94520.06;;;23.76;29.68
22389;BME280;11362;48.102;11.620;2022-11-15T13:55:18;94485.31;;;23.88;31.28
22389;BME280;11362;48.102;11.620;2022-11-15T13:57:47;94477.72;;;24.04;31.80
22389;BME280;11362;48.102;11.620;2022-11-15T14:00:42;94478.22;;;24.15;32.79
22389;BME280;11362;48.102;11.620;2022-11-15T14:03:21;94474.13;;;24.20;33.13
22389;BME280;11362;48.102;11.620;2022-11-15T14:06:06;94481.13;;;24.24;34.15
22389;BME280;11362;48.102;11.620;2022-11-15T14:08:33;94477.91;;;24.26;34.09
22389;BME280;11362;48.102;11.620;2022-11-15T14:11:18;94510.97;;;24.20;32.57
22389;BME280;11362;48.102;11.620;2022-11-15T14:14:23;94520.69;;;23.68;30.42
22389;BME280;11362;48.102;11.620;2022-11-15T14:16:52;94505.81;;;23.62;30.36
22389;BME280;11362;48.102;11.620;2022-11-15T14:22:18;94521.38;;;23.88;31.40
22389;BME280;11362;48.102;11.620;2022-11-15T14:24:46;94517.13;;;23.67;29.85